createdAt,value
2022-10-07T00:00:55.874Z,92.69
2022-10-07T00:03:26.106Z,92.81
2022-10-07T00:06:01.021Z,93.11
2022-10-07T00:08:28.134Z,92.74
2022-10-07T00:10:55.266Z,92.32
2022-10-07T00:13:22.038Z,92.47
2022-10-07T00:15:48.801Z,92.23
2022-10-07T00:18:15.447Z,92.44
2022-10-07T00:20:42.202Z,92.66
2022-10-07T00:23:09.327Z,92.55
2022-10-07T00:25:37.661Z,92.51
2022-10-07T00:28:05.268Z,92.61
2022-10-07T00:30:32.203Z,92.34
2022-10-07T00:32:58.905Z,92.52
2022-10-07T00:35:25.704Z,92.66
2022-10-07T00:37:52.629Z,92.62
2022-10-07T00:40:19.398Z,93.00
2022-10-07T00:42:46.199Z,92.86
2022-10-07T00:45:15.327Z,92.97
2022-10-07T00:47:46.821Z,92.98
2022-10-07T00:50:16.871Z,93.40
2022-10-07T00:52:53.521Z,93.25
2022-10-07T00:55:24.722Z,93.32
2022-10-07T00:57:55.044Z,93.11
2022-10-07T01:00:24.037Z,93.08
2022-10-07T01:02:52.133Z,92.96
2022-10-07T01:05:19.984Z,92.85
2022-10-07T01:07:48.458Z,92.83
2022-10-07T01:10:20.078Z,92.92
2022-10-07T01:13:19.452Z,92.57
2022-10-07T01:16:16.841Z,92.43
2022-10-07T01:19:22.716Z,92.85
2022-10-07T01:22:13.518Z,92.99
2022-10-07T01:24:47.602Z,93.17
2022-10-07T01:27:16.748Z,93.33
2022-10-07T01:29:56.580Z,93.08
2022-10-07T01:32:36.941Z,93.08
2022-10-07T01:35:10.001Z,93.11
2022-10-07T01:37:43.448Z,93.01
2022-10-07T01:40:15.571Z,93.09
2022-10-07T01:42:43.850Z,93.16
2022-10-07T01:45:14.346Z,92.85
2022-10-07T01:47:41.511Z,92.59
2022-10-07T01:50:16.181Z,92.66
2022-10-07T01:52:48.857Z,92.49
2022-10-07T01:55:42.148Z,92.59
2022-10-07T01:58:33.400Z,92.87
2022-10-07T02:02:02.354Z,92.56
2022-10-07T02:05:05.956Z,92.99
2022-10-07T02:07:53.462Z,92.91
2022-10-07T02:10:34.233Z,93.08
2022-10-07T02:13:15.952Z,92.84
2022-10-07T02:15:51.942Z,92.53
2022-10-07T02:18:20.498Z,92.97
2022-10-07T02:20:50.123Z,93.16
2022-10-07T02:23:18.774Z,93.28
2022-10-07T02:25:53.677Z,93.26
2022-10-07T02:28:23.444Z,93.22
2022-10-07T02:30:55.477Z,93.29
2022-10-07T02:33:24.648Z,93.37
2022-10-07T02:35:55.699Z,93.63
2022-10-07T02:38:22.787Z,93.55
2022-10-07T02:41:01.961Z,93.61
2022-10-07T02:43:47.399Z,94.10
2022-10-07T02:46:22.830Z,94.17
2022-10-07T02:48:58.859Z,93.89
2022-10-07T02:51:36.469Z,93.59
2022-10-07T02:54:04.815Z,93.54
2022-10-07T02:56:34.393Z,93.91
2022-10-07T02:59:03.524Z,93.99
2022-10-07T03:01:34.261Z,94.26
2022-10-07T03:04:01.286Z,94.32
2022-10-07T03:06:29.658Z,94.36
2022-10-07T03:08:57.897Z,94.09
2022-10-07T03:11:24.785Z,94.07
2022-10-07T03:13:51.451Z,94.05
2022-10-07T03:16:18.289Z,93.97
2022-10-07T03:18:46.559Z,93.91
2022-10-07T03:21:13.265Z,94.16
2022-10-07T03:23:40.005Z,94.29
2022-10-07T03:26:06.676Z,94.42
2022-10-07T03:28:38.286Z,94.52
2022-10-07T03:31:07.637Z,94.10
2022-10-07T03:33:34.938Z,93.97
2022-10-07T03:36:01.723Z,93.73
2022-10-07T03:38:28.353Z,94.07
2022-10-07T03:40:55.197Z,94.08
2022-10-07T03:43:21.905Z,94.46
2022-10-07T03:45:51.730Z,94.27
2022-10-07T03:48:18.681Z,94.10
2022-10-07T03:50:52.946Z,94.30
2022-10-07T03:53:20.524Z,94.32
2022-10-07T03:55:47.255Z,94.10
2022-10-07T03:58:14.035Z,94.17
2022-10-07T04:00:41.270Z,94.22
2022-10-07T04:03:09.271Z,94.30
2022-10-07T04:05:37.194Z,94.43
2022-10-07T04:08:04.886Z,94.79
2022-10-07T04:10:32.206Z,95.03
2022-10-07T04:12:58.857Z,95.10
2022-10-07T04:15:25.946Z,95.12
2022-10-07T04:17:58.451Z,94.95
2022-10-07T04:20:26.245Z,94.85
2022-10-07T04:22:53.122Z,94.96
2022-10-07T04:25:35.138Z,94.85
2022-10-07T04:28:07.441Z,95.00
2022-10-07T04:30:39.822Z,94.81
2022-10-07T04:33:07.638Z,94.99
2022-10-07T04:35:37.126Z,94.94
2022-10-07T04:38:03.865Z,94.72
2022-10-07T04:40:31.082Z,94.65
2022-10-07T04:43:16.352Z,94.69
2022-10-07T04:45:43.115Z,94.42
2022-10-07T04:48:10.244Z,94.46
2022-10-07T04:50:38.611Z,94.69
2022-10-07T04:53:10.680Z,94.82
2022-10-07T04:55:46.594Z,94.85
2022-10-07T04:58:14.568Z,94.84
2022-10-07T05:00:46.987Z,94.72
2022-10-07T05:03:15.344Z,95.02
2022-10-07T05:05:48.394Z,94.91
2022-10-07T05:08:17.370Z,94.77
2022-10-07T05:10:44.202Z,95.01
2022-10-07T05:13:13.496Z,95.14
2022-10-07T05:15:51.299Z,94.98
2022-10-07T05:18:19.539Z,95.43
2022-10-07T05:20:48.763Z,95.21
2022-10-07T05:23:16.980Z,94.99
2022-10-07T05:25:44.391Z,94.92
2022-10-07T05:28:12.320Z,95.23
2022-10-07T05:30:39.800Z,95.05
2022-10-07T05:33:07.217Z,95.14
2022-10-07T05:35:34.114Z,95.01
2022-10-07T05:38:01.647Z,95.04
2022-10-07T05:40:29.004Z,95.28
2022-10-07T05:42:55.672Z,95.09
2022-10-07T05:45:22.483Z,94.96
2022-10-07T05:47:49.237Z,94.59
2022-10-07T05:50:15.949Z,94.65
2022-10-07T05:52:45.143Z,94.15
2022-10-07T05:55:12.244Z,94.24
2022-10-07T05:57:39.980Z,94.07
2022-10-07T06:00:07.770Z,93.72
2022-10-07T06:02:34.535Z,93.71
2022-10-07T06:05:02.842Z,93.59
2022-10-07T06:07:30.904Z,93.43
2022-10-07T06:10:16.028Z,93.31
2022-10-07T06:13:11.950Z,93.01
2022-10-07T06:15:38.659Z,92.88
2022-10-07T06:18:05.533Z,93.36
2022-10-07T06:20:32.438Z,92.36
2022-10-07T06:22:59.105Z,91.95
2022-10-07T06:25:25.951Z,90.44
2022-10-07T06:27:56.313Z,88.86
2022-10-07T06:30:23.278Z,87.78
2022-10-07T06:32:50.080Z,88.99
2022-10-07T06:35:17.079Z,89.81
2022-10-07T06:37:44.218Z,89.68
2022-10-07T06:40:11.911Z,89.73
2022-10-07T06:42:38.639Z,89.15
2022-10-07T06:45:05.821Z,88.68
2022-10-07T06:47:32.612Z,88.84
2022-10-07T06:49:59.298Z,88.98
2022-10-07T06:52:26.041Z,88.80
2022-10-07T06:54:52.887Z,88.47
2022-10-07T06:57:44.138Z,87.75
2022-10-07T07:00:07.162Z,87.52
2022-10-07T07:02:34.026Z,87.27
2022-10-07T07:05:04.437Z,87.32
2022-10-07T07:07:31.282Z,86.93
2022-10-07T07:09:57.907Z,86.75
2022-10-07T07:12:25.278Z,86.37
2022-10-07T07:14:52.312Z,86.07
2022-10-07T07:17:19.043Z,85.91
2022-10-07T07:19:45.776Z,85.78
2022-10-07T07:22:12.486Z,85.54
2022-10-07T07:24:39.228Z,85.45
2022-10-07T07:27:05.904Z,84.99
2022-10-07T07:29:33.112Z,83.97
2022-10-07T07:32:00.145Z,83.67
2022-10-07T07:34:26.948Z,83.59
2022-10-07T07:36:53.628Z,83.38
2022-10-07T07:39:20.899Z,83.07
2022-10-07T07:41:47.842Z,83.23
2022-10-07T07:44:17.237Z,82.34
2022-10-07T07:46:48.172Z,81.07
2022-10-07T07:49:15.872Z,81.25
2022-10-07T07:51:43.109Z,80.43
2022-10-07T07:54:10.696Z,79.71
2022-10-07T07:56:37.595Z,79.76
2022-10-07T07:59:05.256Z,79.11
2022-10-07T08:01:32.251Z,77.98
2022-10-07T08:03:59.585Z,78.27
2022-10-07T08:06:27.947Z,77.53
2022-10-07T08:08:59.628Z,76.51
2022-10-07T08:11:27.030Z,76.05
2022-10-07T08:13:55.711Z,75.44
2022-10-07T08:16:24.775Z,75.13
2022-10-07T08:18:52.303Z,75.11
2022-10-07T08:21:21.189Z,74.25
2022-10-07T08:23:51.617Z,73.84
2022-10-07T08:26:18.405Z,72.62
2022-10-07T08:28:45.077Z,72.39
2022-10-07T08:31:14.374Z,71.80
2022-10-07T08:33:45.054Z,72.04
2022-10-07T08:36:17.650Z,70.61
2022-10-07T08:38:48.594Z,70.08
2022-10-07T08:41:42.505Z,70.26
2022-10-07T08:44:18.450Z,67.95
2022-10-07T08:47:11.927Z,67.30
2022-10-07T08:50:04.609Z,66.45
2022-10-07T08:52:42.028Z,64.94
2022-10-07T08:55:22.194Z,63.31
2022-10-07T08:57:54.909Z,61.87
2022-10-07T09:00:24.884Z,60.68
2022-10-07T09:03:14.288Z,59.95
2022-10-07T09:05:45.960Z,57.44
2022-10-07T09:08:40.411Z,55.99
2022-10-07T09:11:20.060Z,54.62
2022-10-07T09:13:57.715Z,52.82
2022-10-07T09:16:30.571Z,52.95
2022-10-07T09:19:00.514Z,51.38
2022-10-07T09:21:41.419Z,49.48
2022-10-07T09:24:24.407Z,49.85
2022-10-07T09:26:56.665Z,48.73
2022-10-07T09:29:29.201Z,48.10
2022-10-07T09:32:00.208Z,46.41
2022-10-07T09:34:29.909Z,47.08
2022-10-07T09:37:11.652Z,45.83
2022-10-07T09:39:39.193Z,45.43
2022-10-07T09:42:25.460Z,43.07
2022-10-07T09:44:57.605Z,44.05
2022-10-07T09:47:27.558Z,45.48
2022-10-07T09:49:59.719Z,44.99
2022-10-07T09:52:31.613Z,45.75
2022-10-07T09:55:28.715Z,45.70
2022-10-07T09:58:01.182Z,46.35
2022-10-07T10:00:28.617Z,47.50
2022-10-07T10:03:06.575Z,49.27
2022-10-07T10:05:49.985Z,50.37
2022-10-07T10:08:16.664Z,51.82
2022-10-07T10:10:57.776Z,52.14
2022-10-07T10:13:36.087Z,52.62
2022-10-07T10:16:27.793Z,52.87
2022-10-07T10:19:02.441Z,54.42
2022-10-07T10:21:40.803Z,54.33
2022-10-07T10:24:13.865Z,54.69
2022-10-07T10:27:03.748Z,54.82
2022-10-07T10:29:49.490Z,56.12
2022-10-07T10:32:41.741Z,55.97
2022-10-07T10:35:13.242Z,54.00
2022-10-07T10:37:39.902Z,54.82
2022-10-07T10:40:09.700Z,53.44
2022-10-07T10:42:36.454Z,53.52
2022-10-07T10:45:13.357Z,51.10
2022-10-07T10:48:17.224Z,49.24
2022-10-07T10:50:57.587Z,48.61
2022-10-07T10:53:35.600Z,47.64
2022-10-07T10:56:24.975Z,46.71
2022-10-07T10:59:00.843Z,46.68
2022-10-07T11:01:37.586Z,45.38
2022-10-07T11:04:16.264Z,44.64
2022-10-07T11:06:48.547Z,43.89
2022-10-07T11:09:31.965Z,44.38
2022-10-07T11:12:03.597Z,43.67
2022-10-07T11:14:32.320Z,45.06
2022-10-07T11:17:05.212Z,43.25
2022-10-07T11:19:35.839Z,43.77
2022-10-07T11:22:03.563Z,42.35
2022-10-07T11:24:45.440Z,41.36
2022-10-07T11:27:29.030Z,41.40
2022-10-07T11:30:14.558Z,41.95
2022-10-07T11:32:55.755Z,42.06
2022-10-07T11:35:41.487Z,41.17
2022-10-07T11:38:15.349Z,41.41
2022-10-07T11:40:53.700Z,42.29
2022-10-07T11:43:27.654Z,44.29
2022-10-07T11:46:05.768Z,42.99
2022-10-07T11:48:41.066Z,43.54
2022-10-07T11:51:10.201Z,45.09
2022-10-07T11:53:39.998Z,46.34
2022-10-07T11:56:22.095Z,46.98
2022-10-07T11:59:00.441Z,48.08
2022-10-07T12:01:30.402Z,46.67
2022-10-07T12:04:22.067Z,46.35
2022-10-07T12:07:26.680Z,47.64
2022-10-07T12:09:59.403Z,48.44
2022-10-07T12:12:47.569Z,49.01
2022-10-07T12:15:27.158Z,48.91
2022-10-07T12:18:06.138Z,50.00
2022-10-07T12:20:46.185Z,50.26
2022-10-07T12:23:19.747Z,50.86
2022-10-07T12:26:05.336Z,51.21
2022-10-07T12:28:48.620Z,51.04
2022-10-07T12:31:15.287Z,51.25
2022-10-07T12:33:45.296Z,51.95
2022-10-07T12:36:21.366Z,51.69
2022-10-07T12:39:00.171Z,52.02
2022-10-07T12:41:29.917Z,51.81
2022-10-07T12:44:14.013Z,52.14
2022-10-07T12:46:40.739Z,52.09
2022-10-07T12:49:17.906Z,51.53
2022-10-07T12:51:45.540Z,51.81
2022-10-07T12:54:32.104Z,50.97
2022-10-07T12:57:00.513Z,49.72
2022-10-07T13:00:02.614Z,50.74
2022-10-07T13:03:07.121Z,50.16
2022-10-07T13:06:04.730Z,50.75
2022-10-07T13:09:09.014Z,50.30
2022-10-07T13:12:06.595Z,50.56
2022-10-07T13:15:17.855Z,50.58
2022-10-07T13:17:50.070Z,50.15
2022-10-07T13:20:20.084Z,50.32
2022-10-07T13:22:48.886Z,48.65
2022-10-07T13:25:20.023Z,49.07
2022-10-07T13:27:55.876Z,48.54
2022-10-07T13:30:40.905Z,48.19
2022-10-07T13:33:28.392Z,47.57
2022-10-07T13:36:14.192Z,48.51
2022-10-07T13:38:40.929Z,48.50
2022-10-07T13:41:26.586Z,48.54
2022-10-07T13:43:58.121Z,48.47
2022-10-07T13:46:27.316Z,48.25
2022-10-07T13:48:56.449Z,48.67
2022-10-07T13:51:29.221Z,47.86
2022-10-07T13:53:59.642Z,48.56
2022-10-07T13:56:30.553Z,47.67
2022-10-07T13:58:58.200Z,47.70
2022-10-07T14:01:28.651Z,46.19
2022-10-07T14:04:14.683Z,46.19
2022-10-07T14:07:00.182Z,45.25
2022-10-07T14:09:32.838Z,45.45
2022-10-07T14:12:05.297Z,44.01
2022-10-07T14:14:38.544Z,44.58
2022-10-07T14:17:40.691Z,44.55
2022-10-07T14:20:19.490Z,44.59
2022-10-07T14:22:54.637Z,43.71
2022-10-07T14:25:24.284Z,43.67
2022-10-07T14:27:58.810Z,44.32
2022-10-07T14:30:55.476Z,45.08
2022-10-07T14:33:58.992Z,44.81
2022-10-07T14:36:25.865Z,46.60
2022-10-07T14:38:56.091Z,47.89
2022-10-07T14:41:23.663Z,49.69
2022-10-07T14:43:51.864Z,50.69
2022-10-07T14:46:23.126Z,51.40
2022-10-07T14:48:50.354Z,52.50
2022-10-07T14:51:20.573Z,52.45
2022-10-07T14:53:50.931Z,52.65
2022-10-07T14:56:28.067Z,52.97
2022-10-07T14:58:56.038Z,53.65
2022-10-07T15:01:24.050Z,53.48
2022-10-07T15:03:51.162Z,54.15
2022-10-07T15:06:18.908Z,54.63
2022-10-07T15:08:46.801Z,55.04
2022-10-07T15:11:18.749Z,54.81
2022-10-07T15:13:47.710Z,55.04
2022-10-07T15:16:23.759Z,54.74
2022-10-07T15:18:52.905Z,55.30
2022-10-07T15:21:21.963Z,56.23
2022-10-07T15:23:55.155Z,56.37
2022-10-07T15:26:24.559Z,56.49
2022-10-07T15:28:56.760Z,57.03
2022-10-07T15:31:29.262Z,57.35
2022-10-07T15:33:57.594Z,57.42
2022-10-07T15:36:26.857Z,59.06
2022-10-07T15:38:59.574Z,58.22
2022-10-07T15:41:35.329Z,57.84
2022-10-07T15:44:07.332Z,58.42
2022-10-07T15:46:35.277Z,58.38
2022-10-07T15:49:03.470Z,58.61
2022-10-07T15:51:31.564Z,58.91
2022-10-07T15:53:58.439Z,58.76
2022-10-07T15:56:28.118Z,58.93
2022-10-07T15:58:54.902Z,59.91
2022-10-07T16:01:22.243Z,60.15
2022-10-07T16:03:49.787Z,60.10
2022-10-07T16:06:26.018Z,60.69
2022-10-07T16:08:57.809Z,61.65
2022-10-07T16:11:27.122Z,62.15
2022-10-07T16:13:54.028Z,62.31
2022-10-07T16:16:23.412Z,62.74
2022-10-07T16:18:52.315Z,63.41
2022-10-07T16:21:22.676Z,64.54
2022-10-07T16:23:51.734Z,65.24
2022-10-07T16:26:21.395Z,66.78
2022-10-07T16:29:11.178Z,66.34
2022-10-07T16:31:42.856Z,67.01
2022-10-07T16:34:12.460Z,67.88
2022-10-07T16:36:44.785Z,68.75
2022-10-07T16:39:17.950Z,69.74
2022-10-07T16:41:46.685Z,69.67
2022-10-07T16:44:14.056Z,70.25
2022-10-07T16:46:42.226Z,70.79
2022-10-07T16:49:13.701Z,71.83
2022-10-07T16:51:41.035Z,71.51
2022-10-07T16:54:13.643Z,72.85
2022-10-07T16:56:42.368Z,73.09
2022-10-07T16:59:10.816Z,73.18
2022-10-07T17:01:40.716Z,73.25
2022-10-07T17:04:07.784Z,74.04
2022-10-07T17:06:35.184Z,74.16
2022-10-07T17:09:04.598Z,74.26
2022-10-07T17:11:36.074Z,74.54
2022-10-07T17:14:09.318Z,75.04
2022-10-07T17:16:42.286Z,75.23
2022-10-07T17:19:15.284Z,75.07
2022-10-07T17:21:42.332Z,73.70
2022-10-07T17:24:09.837Z,73.83
2022-10-07T17:26:37.875Z,72.93
2022-10-07T17:29:11.977Z,73.12
2022-10-07T17:31:42.395Z,73.16
2022-10-07T17:34:11.542Z,73.01
2022-10-07T17:36:39.411Z,73.09
2022-10-07T17:39:06.598Z,73.35
2022-10-07T17:41:35.394Z,72.98
2022-10-07T17:44:04.242Z,73.51
2022-10-07T17:46:33.162Z,73.15
2022-10-07T17:49:02.246Z,73.25
2022-10-07T17:51:31.427Z,73.00
2022-10-07T17:54:00.157Z,72.96
2022-10-07T17:56:28.571Z,73.27
2022-10-07T17:58:56.139Z,73.81
2022-10-07T18:01:27.517Z,73.66
2022-10-07T18:04:00.568Z,74.38
2022-10-07T18:06:30.329Z,73.26
2022-10-07T18:09:02.245Z,73.00
2022-10-07T18:11:48.156Z,73.28
2022-10-07T18:14:33.730Z,73.03
2022-10-07T18:17:00.957Z,72.79
2022-10-07T18:19:29.432Z,72.78
2022-10-07T18:21:56.736Z,73.19
2022-10-07T18:24:27.521Z,73.23
2022-10-07T18:26:59.031Z,73.18
2022-10-07T18:29:37.507Z,72.99
2022-10-07T18:32:06.122Z,73.46
2022-10-07T18:34:33.581Z,74.09
2022-10-07T18:37:00.764Z,74.43
2022-10-07T18:39:29.687Z,74.47
2022-10-07T18:41:57.177Z,74.66
2022-10-07T18:44:24.780Z,74.22
2022-10-07T18:46:51.770Z,74.83
2022-10-07T18:49:18.908Z,75.16
2022-10-07T18:51:47.423Z,75.17
2022-10-07T18:54:14.618Z,75.42
2022-10-07T18:56:42.192Z,75.27
2022-10-07T18:59:09.962Z,75.45
2022-10-07T19:01:38.002Z,75.94
2022-10-07T19:04:06.374Z,76.08
2022-10-07T19:06:36.471Z,76.22
2022-10-07T19:09:07.400Z,76.45
2022-10-07T19:11:34.944Z,76.34
2022-10-07T19:14:02.151Z,77.11
2022-10-07T19:16:34.518Z,76.93
2022-10-07T19:19:09.031Z,77.14
2022-10-07T19:21:36.155Z,77.34
2022-10-07T19:24:03.810Z,78.20
2022-10-07T19:26:37.364Z,78.11
2022-10-07T19:29:05.483Z,78.18
2022-10-07T19:31:35.631Z,78.92
2022-10-07T19:34:05.518Z,78.05
2022-10-07T19:36:35.784Z,77.69
2022-10-07T19:39:04.273Z,78.25
2022-10-07T19:41:33.070Z,77.83
2022-10-07T19:44:04.440Z,77.61
2022-10-07T19:46:33.462Z,77.41
2022-10-07T19:49:01.751Z,77.95
2022-10-07T19:51:30.565Z,77.37
2022-10-07T19:53:58.960Z,77.56
2022-10-07T19:56:35.551Z,77.50
2022-10-07T19:59:08.316Z,78.41
2022-10-07T20:01:39.439Z,78.27
2022-10-07T20:04:21.223Z,77.69
2022-10-07T20:06:49.110Z,78.50
2022-10-07T20:09:18.025Z,78.14
2022-10-07T20:11:46.721Z,78.11
2022-10-07T20:14:16.226Z,78.38
2022-10-07T20:16:43.258Z,78.93
2022-10-07T20:19:18.503Z,78.68
2022-10-07T20:21:46.339Z,78.69
2022-10-07T20:24:17.191Z,78.36
2022-10-07T20:26:45.013Z,78.95
2022-10-07T20:29:11.989Z,78.40
2022-10-07T20:31:40.966Z,78.40
2022-10-07T20:34:11.222Z,78.63
2022-10-07T20:36:38.707Z,78.78
2022-10-07T20:39:37.737Z,78.76
2022-10-07T20:42:25.806Z,78.59
2022-10-07T20:44:53.575Z,79.62
2022-10-07T20:47:22.191Z,80.59
2022-10-07T20:49:51.186Z,80.30
2022-10-07T20:52:21.479Z,78.79
2022-10-07T20:54:48.950Z,78.79
2022-10-07T20:57:24.706Z,80.04
2022-10-07T20:59:51.981Z,79.28
2022-10-07T21:02:21.192Z,79.62
2022-10-07T21:04:48.159Z,79.08
2022-10-07T21:07:16.593Z,78.88
2022-10-07T21:09:43.536Z,79.52
2022-10-07T21:12:13.760Z,79.27
2022-10-07T21:14:43.024Z,79.29
2022-10-07T21:17:10.388Z,79.80
2022-10-07T21:19:37.160Z,80.36
2022-10-07T21:22:05.630Z,79.99
2022-10-07T21:24:34.332Z,80.12
2022-10-07T21:27:03.548Z,79.69
2022-10-07T21:29:31.381Z,79.86
2022-10-07T21:31:58.502Z,80.16
2022-10-07T21:34:25.259Z,80.25
2022-10-07T21:36:54.291Z,80.21
2022-10-07T21:39:21.437Z,80.11
2022-10-07T21:41:49.165Z,80.07
2022-10-07T21:44:16.168Z,79.95
2022-10-07T21:46:43.883Z,80.30
2022-10-07T21:49:13.763Z,80.31
2022-10-07T21:51:40.645Z,80.93
2022-10-07T21:54:07.691Z,81.30
2022-10-07T21:56:34.890Z,81.19
2022-10-07T21:59:03.954Z,81.01
2022-10-07T22:01:32.196Z,80.91
2022-10-07T22:04:01.498Z,80.88
2022-10-07T22:06:49.363Z,80.17
2022-10-07T22:09:20.522Z,79.85
2022-10-07T22:11:48.448Z,80.27
2022-10-07T22:14:15.231Z,79.09
2022-10-07T22:16:42.376Z,79.07
2022-10-07T22:19:10.718Z,78.72
2022-10-07T22:21:40.091Z,79.08
2022-10-07T22:24:08.871Z,79.01
2022-10-07T22:26:45.931Z,79.46
2022-10-07T22:29:15.039Z,79.38
2022-10-07T22:31:42.264Z,79.43
2022-10-07T22:34:08.990Z,79.31
2022-10-07T22:36:36.850Z,78.74
2022-10-07T22:39:04.163Z,78.93
2022-10-07T22:41:31.315Z,79.02
2022-10-07T22:43:59.061Z,78.66
2022-10-07T22:46:27.899Z,78.82
2022-10-07T22:48:56.518Z,78.79
2022-10-07T22:51:24.337Z,79.04
2022-10-07T22:53:53.810Z,78.98
2022-10-07T22:56:22.203Z,79.07
2022-10-07T22:58:57.957Z,79.22
2022-10-07T23:01:25.857Z,79.46
2022-10-07T23:03:52.714Z,79.43
2022-10-07T23:06:19.829Z,79.28
2022-10-07T23:08:48.141Z,78.93
2022-10-07T23:11:18.625Z,78.76
2022-10-07T23:13:48.412Z,79.26
2022-10-07T23:16:18.426Z,78.95
2022-10-07T23:18:46.998Z,79.37
2022-10-07T23:21:16.963Z,78.92
2022-10-07T23:23:46.398Z,79.58
2022-10-07T23:26:22.957Z,79.12
2022-10-07T23:28:51.391Z,78.65
2022-10-07T23:31:20.291Z,78.75
2022-10-07T23:33:49.909Z,78.55
2022-10-07T23:36:17.816Z,78.38
2022-10-07T23:38:44.762Z,78.79
2022-10-07T23:41:13.156Z,78.79
2022-10-07T23:43:40.026Z,78.83
2022-10-07T23:46:14.408Z,78.77
2022-10-07T23:48:41.783Z,78.55
2022-10-07T23:51:11.852Z,78.59
2022-10-07T23:53:38.964Z,78.38
2022-10-07T23:56:06.236Z,78.60
2022-10-07T23:58:34.174Z,78.86
